aviador You're here:

OING Decoded Metar

GORGAN in IRAN
Report Time2018-01-21 08:30:00
UTC Time2018-01-21 08:38:32
Flight Rules vfr VFR
WindCalm
Visibility9999 m
Phenomena:N/A
Clouds:Few 025 Hf
Expected CloudBase > 3,200 ft AGL from Temp-Dew spread
CeilingNone
Temp13°C (ISA -1)
Dew Point05°C (59% RH)
AAT11.9°C
QNH1022 hPa
Density Alt210 ft
Elevation509 ft
Report Wrong Elevation
Raw Report
METAR OING 210830Z 00000KT 9999 FEW025 13/05 Q1022=

Extra information for OING:More info

Metar Taf Metar & Taf Last 4 Metars F.Rules Stats Wind Profile Meteogram Temp Stats Airport Information Weather charts Add Link Nearby VenuesMetar ALERT Operation Metar Decoded Social comments